XAX352 WMKK-ZGHA
Flight info
| Callsign | XAX352 |
|---|---|
| Flight time | N/A |
| Altitude | 33000 |
| Route | PIBOS1B/14R PIBOS R208 IGARI/K0867F410 DCT ADBOP DCT TUNPO M755 KISAN/N0467F410 M755 PNH/N0461F270 B329 PAK/K0872F390 DCT DOH DCT BALOV/K0869S1190 DCT VAPNA DCT RUSES DCT EXURI R343 LLC DCT |
| Aircraft | A333/H-SDE3GHIJ2J3J5M1RVWXY/LB2D1 |
Departure
| Time | N/A |
|---|---|
| Airport | Kuala Lumpur International Airport (WMKK) |
Arrival
| Time | 2026-04-27 14:24 |
|---|---|
| Airport | Changsha Huanghua International Airport (ZGHA) |
| Time | Latitude | Longitude | Altitude | Speed | Heading |
|---|---|---|---|---|---|
| 2026-04-27 13:27 | 25.02731 | 110.42531 | 32877 ft | 491 kts | 21° |
| 2026-04-27 13:27 | 25.08991 | 110.45559 | 32877 ft | 491 kts | 19° |
| 2026-04-27 13:28 | 25.15273 | 110.48469 | 32882 ft | 488 kts | 19° |
| 2026-04-27 13:28 | 25.21507 | 110.51384 | 32887 ft | 485 kts | 19° |
| 2026-04-27 13:29 | 25.27666 | 110.54304 | 32889 ft | 485 kts | 19° |
| 2026-04-27 13:29 | 25.33870 | 110.57264 | 32890 ft | 486 kts | 19° |
| 2026-04-27 13:30 | 25.40068 | 110.60228 | 32895 ft | 485 kts | 19° |
| 2026-04-27 13:30 | 25.46270 | 110.63191 | 32900 ft | 486 kts | 19° |
| 2026-04-27 13:31 | 25.52480 | 110.66161 | 32894 ft | 486 kts | 19° |
| 2026-04-27 13:31 | 25.58693 | 110.69131 | 32898 ft | 486 kts | 19° |
| 2026-04-27 13:32 | 25.64897 | 110.72108 | 32909 ft | 486 kts | 19° |
| 2026-04-27 13:32 | 25.71114 | 110.75094 | 32898 ft | 487 kts | 19° |
| 2026-04-27 13:33 | 25.77333 | 110.78083 | 32900 ft | 487 kts | 19° |
| 2026-04-27 13:33 | 25.83556 | 110.81077 | 32899 ft | 487 kts | 19° |
| 2026-04-27 13:34 | 25.89782 | 110.84077 | 32894 ft | 487 kts | 19° |
| 2026-04-27 13:34 | 25.95959 | 110.87055 | 32886 ft | 487 kts | 19° |
| 2026-04-27 13:35 | 26.02181 | 110.90044 | 32884 ft | 488 kts | 19° |
| 2026-04-27 13:35 | 26.08409 | 110.93059 | 32889 ft | 488 kts | 19° |
| 2026-04-27 13:36 | 26.14640 | 110.96084 | 32882 ft | 487 kts | 19° |
| 2026-04-27 13:36 | 26.20861 | 110.99102 | 32878 ft | 488 kts | 19° |
| 2026-04-27 13:37 | 26.27103 | 111.02137 | 32878 ft | 490 kts | 19° |
| 2026-04-27 13:37 | 26.33358 | 111.05163 | 32895 ft | 490 kts | 19° |
| 2026-04-27 13:38 | 26.39607 | 111.08202 | 32896 ft | 490 kts | 19° |
| 2026-04-27 13:38 | 26.44802 | 111.10732 | 32881 ft | 491 kts | 19° |
| 2026-04-27 13:39 | 26.51060 | 111.13779 | 32891 ft | 491 kts | 20° |
| 2026-04-27 13:39 | 26.57307 | 111.16894 | 32883 ft | 494 kts | 24° |
| 2026-04-27 13:40 | 26.63216 | 111.20870 | 32889 ft | 497 kts | 28° |
| 2026-04-27 13:40 | 26.69020 | 111.25081 | 32886 ft | 497 kts | 29° |
| 2026-04-27 13:41 | 26.74795 | 111.29346 | 32885 ft | 497 kts | 29° |
| 2026-04-27 13:41 | 26.80575 | 111.33606 | 32882 ft | 497 kts | 29° |
| 2026-04-27 13:42 | 26.86353 | 111.37853 | 32888 ft | 497 kts | 29° |
| 2026-04-27 13:42 | 26.92146 | 111.42094 | 32886 ft | 497 kts | 28° |
| 2026-04-27 13:43 | 26.98062 | 111.46083 | 32890 ft | 496 kts | 26° |
| 2026-04-27 13:43 | 27.04039 | 111.49955 | 32884 ft | 496 kts | 26° |
| 2026-04-27 13:44 | 27.10016 | 111.53849 | 32889 ft | 497 kts | 26° |
| 2026-04-27 13:44 | 27.15955 | 111.57753 | 32890 ft | 497 kts | 26° |
| 2026-04-27 13:45 | 27.21998 | 111.61732 | 32948 ft | 510 kts | 26° |
| 2026-04-27 13:45 | 27.25059 | 111.63743 | 33075 ft | 513 kts | 26° |
| 2026-04-27 13:45 | 27.28154 | 111.65775 | 33230 ft | 514 kts | 26° |
| 2026-04-27 13:46 | 27.31221 | 111.67812 | 33349 ft | 512 kts | 28° |
| 2026-04-27 13:46 | 27.34159 | 111.70095 | 33481 ft | 512 kts | 30° |
| 2026-04-27 13:46 | 27.37137 | 111.72278 | 33612 ft | 510 kts | 28° |
| 2026-04-27 13:46 | 27.40137 | 111.74368 | 33543 ft | 510 kts | 27° |
| 2026-04-27 13:47 | 27.43180 | 111.76446 | 33099 ft | 510 kts | 27° |
| 2026-04-27 13:47 | 27.46215 | 111.78511 | 32470 ft | 510 kts | 27° |
| 2026-04-27 13:47 | 27.49255 | 111.80589 | 31879 ft | 512 kts | 28° |
| 2026-04-27 13:47 | 27.52305 | 111.82690 | 31274 ft | 514 kts | 28° |
| 2026-04-27 13:48 | 27.55357 | 111.84810 | 30683 ft | 516 kts | 28° |
| 2026-04-27 13:48 | 27.58410 | 111.86940 | 30113 ft | 517 kts | 29° |
| 2026-04-27 13:48 | 27.61466 | 111.89078 | 29459 ft | 517 kts | 29° |
| 2026-04-27 13:48 | 27.64513 | 111.91214 | 28798 ft | 513 kts | 29° |
| 2026-04-27 13:49 | 27.67532 | 111.93333 | 28149 ft | 508 kts | 29° |
| 2026-04-27 13:49 | 27.70512 | 111.95426 | 27522 ft | 503 kts | 29° |
| 2026-04-27 13:49 | 27.73475 | 111.97507 | 26910 ft | 498 kts | 29° |
| 2026-04-27 13:49 | 27.76403 | 111.99564 | 26315 ft | 494 kts | 29° |
| 2026-04-27 13:50 | 27.79303 | 112.01601 | 25729 ft | 489 kts | 29° |
| 2026-04-27 13:50 | 27.82182 | 112.03625 | 25141 ft | 485 kts | 29° |
| 2026-04-27 13:50 | 27.85037 | 112.05633 | 24565 ft | 481 kts | 30° |
| 2026-04-27 13:50 | 27.87861 | 112.07621 | 24020 ft | 477 kts | 30° |
| 2026-04-27 13:51 | 27.90664 | 112.09595 | 23466 ft | 472 kts | 30° |
| 2026-04-27 13:51 | 27.93443 | 112.11553 | 22814 ft | 468 kts | 30° |
| 2026-04-27 13:51 | 27.96174 | 112.13529 | 22172 ft | 465 kts | 33° |
| 2026-04-27 13:51 | 27.98611 | 112.15836 | 21562 ft | 462 kts | 44° |
| 2026-04-27 13:52 | 28.00567 | 112.18696 | 20970 ft | 460 kts | 59° |
| 2026-04-27 13:52 | 28.01756 | 112.22030 | 20347 ft | 457 kts | 76° |
| 2026-04-27 13:52 | 28.02052 | 112.25581 | 19758 ft | 453 kts | 94° |
| 2026-04-27 13:52 | 28.01433 | 112.29040 | 19179 ft | 447 kts | 111° |
| 2026-04-27 13:53 | 27.97795 | 112.34454 | 18041 ft | 431 kts | 147° |
| 2026-04-27 13:53 | 27.95144 | 112.35921 | 17388 ft | 422 kts | 165° |
| 2026-04-27 13:53 | 27.92279 | 112.36359 | 16745 ft | 412 kts | 184° |
| 2026-04-27 13:54 | 27.89512 | 112.35741 | 16126 ft | 403 kts | 202° |
| 2026-04-27 13:54 | 27.87132 | 112.34156 | 15534 ft | 396 kts | 221° |
| 2026-04-27 13:54 | 27.85261 | 112.31916 | 14948 ft | 390 kts | 228° |
| 2026-04-27 13:54 | 27.83384 | 112.29726 | 14366 ft | 386 kts | 224° |
| 2026-04-27 13:55 | 27.81435 | 112.27665 | 13792 ft | 382 kts | 221° |
| 2026-04-27 13:55 | 27.79432 | 112.25714 | 13160 ft | 378 kts | 219° |
| 2026-04-27 13:55 | 27.77480 | 112.23742 | 12529 ft | 374 kts | 226° |
| 2026-04-27 13:55 | 27.75933 | 112.21395 | 11907 ft | 372 kts | 239° |
| 2026-04-27 13:56 | 27.74975 | 112.18696 | 11298 ft | 371 kts | 255° |
| 2026-04-27 13:56 | 27.74733 | 112.15807 | 10704 ft | 371 kts | 271° |
| 2026-04-27 13:56 | 27.75269 | 112.12962 | 10126 ft | 373 kts | 288° |
| 2026-04-27 13:56 | 27.76512 | 112.10442 | 9530 ft | 374 kts | 305° |
| 2026-04-27 13:57 | 27.78371 | 112.08386 | 8892 ft | 375 kts | 322° |
| 2026-04-27 13:57 | 27.80674 | 112.07022 | 8271 ft | 376 kts | 339° |
| 2026-04-27 13:57 | 27.83233 | 112.06474 | 7660 ft | 376 kts | 357° |
| 2026-04-27 13:57 | 27.85819 | 112.06816 | 7070 ft | 375 kts | 15° |
| 2026-04-27 13:58 | 27.88201 | 112.07928 | 6501 ft | 369 kts | 26° |
| 2026-04-27 13:58 | 27.90447 | 112.09304 | 5871 ft | 363 kts | 31° |
| 2026-04-27 13:58 | 27.92585 | 112.10787 | 5271 ft | 358 kts | 33° |
| 2026-04-27 13:58 | 27.94674 | 112.12287 | 4664 ft | 352 kts | 33° |
| 2026-04-27 13:59 | 27.96672 | 112.13851 | 4044 ft | 347 kts | 42° |
| 2026-04-27 13:59 | 27.98256 | 112.15860 | 3436 ft | 340 kts | 58° |
| 2026-04-27 13:59 | 27.99166 | 112.18270 | 3038 ft | 326 kts | 79° |
| 2026-04-27 13:59 | 27.99157 | 112.20715 | 2926 ft | 302 kts | 107° |
| 2026-04-27 14:00 | 27.98170 | 112.22673 | 2911 ft | 277 kts | 137° |
| 2026-04-27 14:00 | 27.96544 | 112.23629 | 2907 ft | 257 kts | 171° |
| 2026-04-27 14:00 | 27.94830 | 112.23354 | 2921 ft | 252 kts | 203° |
| 2026-04-27 14:00 | 27.93390 | 112.22223 | 2913 ft | 253 kts | 221° |
| 2026-04-27 14:01 | 27.92132 | 112.20826 | 2910 ft | 253 kts | 219° |
| 2026-04-27 14:01 | 27.90769 | 112.19561 | 2911 ft | 255 kts | 216° |
| 2026-04-27 14:01 | 27.89322 | 112.18410 | 2921 ft | 254 kts | 211° |
| 2026-04-27 14:01 | 27.87817 | 112.17372 | 2922 ft | 253 kts | 208° |
| 2026-04-27 14:02 | 27.86351 | 112.16297 | 2917 ft | 254 kts | 219° |
| 2026-04-27 14:02 | 27.85240 | 112.14747 | 2908 ft | 256 kts | 240° |
| 2026-04-27 14:02 | 27.84821 | 112.12828 | 2914 ft | 260 kts | 270° |
| 2026-04-27 14:02 | 27.85315 | 112.10865 | 2902 ft | 264 kts | 301° |
| 2026-04-27 14:03 | 27.86630 | 112.09435 | 2916 ft | 266 kts | 330° |
| 2026-04-27 14:03 | 27.88323 | 112.08580 | 2916 ft | 267 kts | 342° |
| 2026-04-27 14:03 | 27.90143 | 112.08266 | 2918 ft | 266 kts | 5° |
| 2026-04-27 14:03 | 27.91870 | 112.08883 | 2916 ft | 262 kts | 35° |
| 2026-04-27 14:04 | 27.93033 | 112.10405 | 3271 ft | 257 kts | 67° |
| 2026-04-27 14:04 | 27.93541 | 112.12356 | 3762 ft | 260 kts | 83° |
| 2026-04-27 14:04 | 27.93703 | 112.14397 | 4283 ft | 263 kts | 92° |
| 2026-04-27 14:04 | 27.93686 | 112.16479 | 4435 ft | 264 kts | 96° |
| 2026-04-27 14:05 | 27.93602 | 112.18570 | 4020 ft | 268 kts | 96° |
| 2026-04-27 14:05 | 27.93512 | 112.20674 | 3667 ft | 266 kts | 96° |
| 2026-04-27 14:05 | 27.93447 | 112.22747 | 3379 ft | 262 kts | 95° |
| 2026-04-27 14:05 | 27.93411 | 112.24787 | 3068 ft | 258 kts | 94° |
| 2026-04-27 14:06 | 27.93395 | 112.26809 | 2928 ft | 256 kts | 93° |
| 2026-04-27 14:06 | 27.93387 | 112.28823 | 2908 ft | 257 kts | 92° |
| 2026-04-27 14:06 | 27.93393 | 112.30841 | 2918 ft | 257 kts | 92° |
| 2026-04-27 14:06 | 27.93409 | 112.32856 | 2902 ft | 256 kts | 91° |
| 2026-04-27 14:07 | 27.93427 | 112.34873 | 2978 ft | 257 kts | 91° |
| 2026-04-27 14:07 | 27.93436 | 112.36902 | 2996 ft | 258 kts | 91° |
| 2026-04-27 14:07 | 27.93437 | 112.38929 | 2995 ft | 258 kts | 92° |
| 2026-04-27 14:07 | 27.93436 | 112.40931 | 2995 ft | 258 kts | 92° |
| 2026-04-27 14:08 | 27.93435 | 112.42960 | 2996 ft | 258 kts | 92° |
| 2026-04-27 14:08 | 27.93434 | 112.44989 | 2996 ft | 259 kts | 92° |
| 2026-04-27 14:08 | 27.93435 | 112.47023 | 2985 ft | 258 kts | 92° |
| 2026-04-27 14:08 | 27.93436 | 112.49055 | 2999 ft | 259 kts | 92° |
| 2026-04-27 14:09 | 27.93437 | 112.51091 | 2993 ft | 259 kts | 92° |
| 2026-04-27 14:09 | 27.93438 | 112.53122 | 2992 ft | 259 kts | 92° |
| 2026-04-27 14:09 | 27.93440 | 112.55158 | 2991 ft | 258 kts | 92° |
| 2026-04-27 14:09 | 27.93441 | 112.57188 | 2990 ft | 258 kts | 92° |
| 2026-04-27 14:10 | 27.93442 | 112.59207 | 2989 ft | 258 kts | 92° |
| 2026-04-27 14:10 | 27.93443 | 112.61246 | 2986 ft | 258 kts | 92° |
| 2026-04-27 14:10 | 27.93444 | 112.63279 | 2987 ft | 258 kts | 92° |
| 2026-04-27 14:10 | 27.93444 | 112.65305 | 2989 ft | 258 kts | 92° |
| 2026-04-27 14:11 | 27.93443 | 112.69125 | 2988 ft | 259 kts | 92° |
| 2026-04-27 14:11 | 27.93442 | 112.71159 | 2983 ft | 259 kts | 92° |
| 2026-04-27 14:11 | 27.93440 | 112.73188 | 2985 ft | 257 kts | 92° |
| 2026-04-27 14:12 | 27.93439 | 112.75210 | 2987 ft | 258 kts | 92° |
| 2026-04-27 14:12 | 27.93437 | 112.77245 | 2990 ft | 258 kts | 92° |
| 2026-04-27 14:12 | 27.93435 | 112.79279 | 2987 ft | 259 kts | 94° |
| 2026-04-27 14:12 | 27.93434 | 112.81313 | 2988 ft | 259 kts | 94° |
| 2026-04-27 14:13 | 27.93431 | 112.83354 | 2987 ft | 260 kts | 94° |
| 2026-04-27 14:13 | 27.93427 | 112.85394 | 2990 ft | 261 kts | 94° |
| 2026-04-27 14:13 | 27.93423 | 112.87443 | 2983 ft | 260 kts | 94° |
| 2026-04-27 14:13 | 27.93419 | 112.89496 | 2986 ft | 261 kts | 94° |
| 2026-04-27 14:14 | 27.93415 | 112.91546 | 2980 ft | 260 kts | 94° |
| 2026-04-27 14:14 | 27.93410 | 112.93584 | 2984 ft | 260 kts | 94° |
| 2026-04-27 14:14 | 27.93406 | 112.95638 | 2981 ft | 261 kts | 94° |
| 2026-04-27 14:14 | 27.93401 | 112.97684 | 2982 ft | 260 kts | 94° |
| 2026-04-27 14:15 | 27.93389 | 112.99719 | 2989 ft | 259 kts | 94° |
| 2026-04-27 14:15 | 27.93382 | 113.01766 | 2991 ft | 260 kts | 94° |
| 2026-04-27 14:15 | 27.93377 | 113.03812 | 2990 ft | 261 kts | 94° |
| 2026-04-27 14:15 | 27.93375 | 113.05862 | 2989 ft | 261 kts | 94° |
| 2026-04-27 14:16 | 27.93370 | 113.07913 | 2993 ft | 261 kts | 94° |
| 2026-04-27 14:16 | 27.93366 | 113.09943 | 2985 ft | 252 kts | 94° |
| 2026-04-27 14:16 | 27.93368 | 113.11841 | 2977 ft | 237 kts | 94° |
| 2026-04-27 14:16 | 27.93379 | 113.13651 | 2977 ft | 224 kts | 94° |
| 2026-04-27 14:17 | 27.93390 | 113.15394 | 2747 ft | 221 kts | 94° |
| 2026-04-27 14:17 | 27.93395 | 113.17138 | 2410 ft | 221 kts | 94° |
| 2026-04-27 14:17 | 27.93401 | 113.18836 | 2291 ft | 210 kts | 94° |
| 2026-04-27 14:17 | 27.93432 | 113.20428 | 2275 ft | 196 kts | 88° |
| 2026-04-27 14:18 | 27.94018 | 113.21745 | 2258 ft | 188 kts | 40° |
| 2026-04-27 14:18 | 27.95209 | 113.22258 | 2287 ft | 185 kts | 7° |
| 2026-04-27 14:18 | 27.96486 | 113.22318 | 2301 ft | 183 kts | 359° |
| 2026-04-27 14:18 | 27.97759 | 113.22334 | 2291 ft | 183 kts | 2° |
| 2026-04-27 14:19 | 27.99000 | 113.22447 | 2280 ft | 173 kts | 7° |
| 2026-04-27 14:19 | 28.00114 | 113.22619 | 2291 ft | 166 kts | 8° |
| 2026-04-27 14:19 | 28.01220 | 113.22794 | 2324 ft | 162 kts | 7° |
| 2026-04-27 14:19 | 28.02342 | 113.22942 | 2291 ft | 163 kts | 5° |
| 2026-04-27 14:20 | 28.03487 | 113.23014 | 2290 ft | 165 kts | 1° |
| 2026-04-27 14:20 | 28.04638 | 113.23033 | 2287 ft | 166 kts | 360° |
| 2026-04-27 14:20 | 28.05798 | 113.23028 | 2293 ft | 166 kts | 359° |
| 2026-04-27 14:20 | 28.06945 | 113.23010 | 2289 ft | 164 kts | 358° |
| 2026-04-27 14:21 | 28.08085 | 113.22985 | 2287 ft | 164 kts | 358° |
| 2026-04-27 14:21 | 28.09222 | 113.22941 | 2250 ft | 164 kts | 357° |
| 2026-04-27 14:21 | 28.10371 | 113.22887 | 1911 ft | 166 kts | 359° |
| 2026-04-27 14:21 | 28.11564 | 113.22819 | 1390 ft | 176 kts | 360° |
| 2026-04-27 14:22 | 28.12779 | 113.22749 | 994 ft | 171 kts | 358° |
| 2026-04-27 14:22 | 28.13914 | 113.22696 | 755 ft | 154 kts | 358° |
| 2026-04-27 14:22 | 28.14929 | 113.22615 | 639 ft | 142 kts | 355° |
| 2026-04-27 14:22 | 28.15581 | 113.22562 | 566 ft | 141 kts | 356° |
| 2026-04-27 14:23 | 28.16864 | 113.22491 | 391 ft | 139 kts | 355° |
| 2026-04-27 14:23 | 28.17840 | 113.22426 | 263 ft | 144 kts | 356° |
| 2026-04-27 14:23 | 28.18831 | 113.22376 | 239 ft | 134 kts | 358° |
| 2026-04-27 14:23 | 28.19671 | 113.22317 | 219 ft | 102 kts | 351° |
| 2026-04-27 14:24 | 28.20114 | 113.22291 | 221 ft | 22 kts | 358° |
| 2026-04-27 14:24 | 28.20182 | 113.22235 | 228 ft | 8 kts | 288° |
| 2026-04-27 14:24 | 28.20182 | 113.22167 | 220 ft | 10 kts | 269° |
| 2026-04-27 14:24 | 28.20210 | 113.22106 | 225 ft | 10 kts | 318° |
| 2026-04-27 14:25 | 28.20291 | 113.22089 | 226 ft | 15 kts | 356° |
| 2026-04-27 14:25 | 28.20400 | 113.22081 | 222 ft | 17 kts | 356° |
| 2026-04-27 14:25 | 28.20522 | 113.22073 | 222 ft | 18 kts | 357° |
| 2026-04-27 14:25 | 28.20601 | 113.22042 | 226 ft | 6 kts | 295° |
| 2026-04-27 14:26 | 28.20606 | 113.21971 | 219 ft | 11 kts | 268° |
| 2026-04-27 14:26 | 28.20603 | 113.21875 | 227 ft | 13 kts | 268° |
| 2026-04-27 14:26 | 28.20604 | 113.21760 | 226 ft | 15 kts | 266° |
| 2026-04-27 14:26 | 28.20536 | 113.21696 | 222 ft | 13 kts | 193° |
| 2026-04-27 14:27 | 28.20445 | 113.21694 | 220 ft | 14 kts | 176° |
| 2026-04-27 14:27 | 28.20340 | 113.21702 | 220 ft | 16 kts | 176° |
| 2026-04-27 14:27 | 28.20220 | 113.21708 | 220 ft | 19 kts | 178° |
| 2026-04-27 14:27 | 28.20084 | 113.21716 | 223 ft | 21 kts | 176° |
| 2026-04-27 14:28 | 28.19937 | 113.21727 | 224 ft | 22 kts | 176° |
| 2026-04-27 14:28 | 28.19774 | 113.21735 | 222 ft | 24 kts | 178° |
| 2026-04-27 14:28 | 28.19600 | 113.21746 | 225 ft | 26 kts | 177° |
| 2026-04-27 14:28 | 28.19411 | 113.21758 | 223 ft | 33 kts | 176° |
| 2026-04-27 14:29 | 28.19125 | 113.21777 | 220 ft | 47 kts | 177° |
| 2026-04-27 14:29 | 28.18895 | 113.21750 | 224 ft | 0 kts | 239° |
| 2026-04-27 14:29 | 28.18889 | 113.21726 | 224 ft | 11 kts | 253° |
| 2026-04-27 14:29 | 28.18880 | 113.21658 | 217 ft | 0 kts | 261° |
| 2026-04-27 14:30 | 28.18875 | 113.21654 | 227 ft | 1 kts | 220° |
| 2026-04-27 14:30 | 28.18772 | 113.21659 | 223 ft | 27 kts | 155° |
| 2026-04-27 14:30 | 28.18659 | 113.21666 | 226 ft | 8 kts | 223° |
| 2026-04-27 14:30 | 28.18658 | 113.21638 | 225 ft | 3 kts | 283° |
| 2026-04-27 14:31 | 28.18671 | 113.21615 | 221 ft | 4 kts | 304° |
| 2026-04-27 14:31 | 28.18683 | 113.21598 | 225 ft | 1 kts | 309° |
| 2026-04-27 14:31 | 28.18688 | 113.21591 | 224 ft | 0 kts | 310° |
| 2026-04-27 14:31 | 28.18690 | 113.21589 | 224 ft | 0 kts | 312° |
| 2026-04-27 14:32 | 28.18687 | 113.21593 | 224 ft | 1 kts | 310° |
| 2026-04-27 14:32 | 28.18686 | 113.21594 | 224 ft | 0 kts | 310° |